Wednesday, November 14, 2018, 1:05 AM CST
Back to Local

KJOT, Joliet, Joliet Regional Airport

Location: Joliet, IL, United States Lat: 41.518
Local Time: 1:05 AM CST ( 7:05 GMT) Lon: -88.175
Time Zone: US/Central Elev: 580 ft

Show me the last for .
Show Coded

Time T Td Feel RH Dir Speed Gust Alt SLP Vis Weather Sky Remarks
2018-11-14 00:35 20 14 - 74 - Calm - 30.52 - 10 CLR None
2018-11-14 00:15 20 14 - 75 - Calm - 30.52 - 10 CLR None
2018-11-13 23:55 21 14 - 73 - Calm - 30.52 - 10 CLR 6-hr Min Temp (12am): 21.0°F
6-hr Max Temp (12am): 25.9°F
24-hr Min Temp (12am): 19.8°F
24-hr Max Temp (12am): 29.8°F
2018-11-13 23:35 21 14 - 73 - Calm - 30.51 - 10 CLR None
2018-11-13 23:15 21 14 16 73 280° 3 - 30.51 - 10 CLR None
2018-11-13 22:55 21 14 16 72 270° 3 - 30.51 - 10 CLR None
2018-11-13 22:30 22 14 17 71 260° 3 - 30.51 - 10 CLR None
2018-11-13 22:15 22 14 17 71 260° 3 - 30.51 - 10 CLR None
2018-11-13 21:55 22 14 17 69 270° 3 - 30.51 - 10 CLR None
2018-11-13 21:35 23 14 - 68 - Calm - 30.50 - 10 CLR None
2018-11-13 21:15 23 14 - 68 - Calm - 30.49 - 10 CLR None
2018-11-13 20:55 23 14 - 68 - Calm - 30.49 - 10 CLR None
2018-11-13 20:35 23 14 - 67 - Calm - 30.49 - 10 CLR None
2018-11-13 20:15 24 14 19 65 250° 3 - 30.49 - 10 CLR None
2018-11-13 19:55 24 14 19 65 260° 3 - 30.48 - 10 CLR None
2018-11-13 19:35 24 14 - 64 - Calm - 30.47 - 10 CLR None
2018-11-13 19:15 25 14 - 63 - Calm - 30.47 - 10 CLR None
2018-11-13 18:55 25 14 - 62 - Calm - 30.47 - 10 CLR None
2018-11-13 18:35 25 14 - 61 - Calm - 30.46 - 10 CLR None
2018-11-13 18:15 25 13 - 60 - Calm - 30.45 - 10 CLR None
2018-11-13 17:55 26 14 - 58 - Calm - 30.45 - 10 CLR 6-hr Min Temp (6pm): 26.1°F
6-hr Max Temp (6pm): 29.8°F
2018-11-13 17:35 26 13 22 56 290° 3 - 30.45 - 10 CLR None
2018-11-13 17:15 27 13 - 55 - Calm - 30.45 - 10 CLR None
2018-11-13 16:55 27 12 22 52 300° 5 - 30.45 - 10 CLR None
2018-11-13 16:35 28 12 22 50 310° 5 - 30.45 - 10 CLR None
2018-11-13 16:15 28 11 23 48 320° 5 - 30.44 - 10 CLR None
2018-11-13 15:55 29 11 21 47 330° 8 - 30.44 - 10 CLR None
2018-11-13 15:35 29 11 24 46 290° 5 - 30.44 - 10 CLR None
2018-11-13 15:15 30 12 24 46 310° 6 - 30.44 - 10 CLR None
2018-11-13 14:55 30 12 23 47 330° 7 - 30.43 - 10 CLR None
2018-11-13 14:35 29 12 22 47 310° 8 - 30.42 - 10 CLR None
2018-11-13 14:15 29 12 21 48 300° 9 - 30.42 - 10 CLR None
2018-11-13 13:55 29 11 23 46 280° 6 - 30.43 - 10 CLR None
2018-11-13 13:35 29 12 22 47 340° 8 - 30.43 - 10 CLR None
2018-11-13 13:15 28 11 19 48 320° 9 - 30.43 - 10 CLR None
2018-11-13 12:55 29 12 21 48 310° 8 - 30.44 - 10 CLR None
2018-11-13 12:35 28 12 20 49 310° 8 - 30.44 - 10 CLR None
2018-11-13 12:15 28 12 21 50 330° 7 - 30.45 - 10 CLR None
2018-11-13 11:55 28 11 20 49 310° 8 - 30.45 - 10 CLR 6-hr Min Temp (12pm): 19.8°F
6-hr Max Temp (12pm): 28.0°F
2018-11-13 11:35 28 12 20 50 310° 8 - 30.45 - 10 CLR None
2018-11-13 11:15 27 11 20 50 320° 6 - 30.45 - 10 CLR None
2018-11-13 10:55 27 11 18 51 320° 9 - 30.45 - 10 CLR None
2018-11-13 10:35 26 11 17 51 320° 8 - 30.46 - 10 CLR None
2018-11-13 10:15 25 11 18 53 330° 7 - 30.45 - 10 CLR None
2018-11-13 09:55 25 11 18 54 320° 6 - 30.45 - 10 SCT030 None
2018-11-13 09:35 24 10 16 54 350° 7 - 30.44 - 10 CLR None
2018-11-13 09:15 24 10 11 55 330° 10 16 30.44 - 10 CLR None
2018-11-13 08:55 23 10 10 56 340° 10 16 30.43 - 10 CLR None
2018-11-13 08:35 23 10 9 57 330° 9 17 30.43 - 10 CLR None
2018-11-13 08:15 22 11 13 62 330° 8 - 30.42 - 10 CLR None
2018-11-13 07:55 22 12 17 65 320° 3 - 30.42 - 10 CLR None
2018-11-13 07:35 21 12 16 68 300° 3 - 30.42 - 10 CLR None
2018-11-13 07:15 20 11 13 66 310° 6 - 30.41 - 10 CLR None
2018-11-13 06:55 20 11 12 67 320° 6 - 30.41 - 10 CLR None
2018-11-13 06:35 20 10 12 65 320° 6 - 30.40 - 10 CLR None
2018-11-13 06:15 20 10 15 64 320° 3 - 30.39 - 10 CLR None
2018-11-13 05:55 20 10 14 64 330° 5 - 30.39 - 10 CLR 6-hr Min Temp (6am): 20.3°F
6-hr Max Temp (6am): 26.2°F
2018-11-13 05:35 21 10 12 63 340° 7 - 30.39 - 10 CLR None
2018-11-13 05:15 21 10 7 61 330° 10 16 30.38 - 10 SCT029 None
2018-11-13 04:55 22 11 13 60 340° 8 - 30.38 - 10 BKN029 None
2018-11-13 04:35 24 13 15 62 320° 8 - 30.37 - 10 OVC029 None
2018-11-13 04:15 24 12 10 60 330° 12 16 30.37 - 10 OVC029 None
2018-11-13 03:55 24 13 14 62 330° 9 - 30.36 - 10 OVC029 None
2018-11-13 03:35 24 13 17 61 310° 6 - 30.36 - 10 OVC029 None
2018-11-13 03:15 24 13 11 61 320° 7 17 30.36 - 10 OVC029 None
2018-11-13 02:55 25 14 16 61 320° 8 - 30.36 - 10 OVC029 None
2018-11-13 02:35 26 14 18 61 330° 7 - 30.36 - 10 OVC029 None
2018-11-13 02:15 26 14 13 60 350° 10 16 30.36 - 10 OVC029 None
2018-11-13 01:55 26 15 17 63 330° 8 - 30.36 - 10 OVC029 None
2018-11-13 01:35 25 15 20 66 330° 3 - 30.36 - 10 BKN029 None
2018-11-13 01:15 25 15 18 65 340° 6 - 30.35 - 10 CLR None

Support USWX by starting your Amazon purchase here.